createdAt,value
2017-04-02T00:00:27.001Z,1011.8
2017-04-02T00:01:29.713Z,1011.8
2017-04-02T00:02:32.815Z,1011.8
2017-04-02T00:03:35.159Z,1011.8
2017-04-02T00:04:38.009Z,1011.8
2017-04-02T00:05:40.858Z,1011.8
2017-04-02T00:06:43.705Z,1011.8
2017-04-02T00:07:46.670Z,1011.8
2017-04-02T00:08:49.012Z,1011.8
2017-04-02T00:09:51.858Z,1011.8
2017-04-02T00:10:54.316Z,1011.9
2017-04-02T00:11:57.164Z,1011.8
2017-04-02T00:13:00.264Z,1011.8
2017-04-02T00:14:02.613Z,1011.8
2017-04-02T00:15:05.464Z,1011.9
2017-04-02T00:16:08.311Z,1011.9
2017-04-02T00:17:11.031Z,1011.9
2017-04-02T00:18:13.997Z,1011.9
2017-04-02T00:20:19.250Z,1011.9
2017-04-02T00:21:21.592Z,1011.9
2017-04-02T00:22:24.438Z,1011.9
2017-04-02T00:23:27.537Z,1011.9
2017-04-02T00:24:29.878Z,1011.9
2017-04-02T00:25:32.464Z,1011.9
2017-04-02T00:26:35.310Z,1012
2017-04-02T00:27:38.166Z,1012
2017-04-02T00:28:41.321Z,1012.1
2017-04-02T00:29:43.669Z,1012.1
2017-04-02T00:30:46.515Z,1012
2017-04-02T00:31:48.858Z,1012.1
2017-04-02T00:32:51.795Z,1012.1
2017-04-02T00:33:54.765Z,1012.1
2017-04-02T00:34:57.112Z,1012.1
2017-04-02T00:35:59.962Z,1012.1
2017-04-02T00:37:02.678Z,1012.1
2017-04-02T00:38:05.537Z,1012.1
2017-04-02T00:39:08.506Z,1012.2
2017-04-02T00:40:10.848Z,1012.2
2017-04-02T00:41:13.698Z,1012.2
2017-04-02T00:42:16.548Z,1012.3
2017-04-02T00:43:18.893Z,1012.3
2017-04-02T00:44:22.042Z,1012.3
2017-04-02T00:45:24.384Z,1012.3
2017-04-02T00:46:27.238Z,1012.4
2017-04-02T00:47:29.955Z,1012.4
2017-04-02T00:48:32.800Z,1012.4
2017-04-02T00:49:35.898Z,1012.4
2017-04-02T00:50:38.240Z,1012.4
2017-04-02T00:51:41.093Z,1012.4
2017-04-02T00:52:43.940Z,1012.4
2017-04-02T00:53:46.319Z,1012.4
2017-04-02T00:54:49.425Z,1012.4
2017-04-02T00:55:51.768Z,1012.5
2017-04-02T00:56:54.478Z,1012.4
2017-04-02T00:57:57.323Z,1012.4
2017-04-02T00:59:00.168Z,1012.5
2017-04-02T01:00:03.134Z,1012.5
2017-04-02T01:01:05.483Z,1012.5
2017-04-02T01:02:08.339Z,1012.6
2017-04-02T01:03:11.188Z,1012.6
2017-04-02T01:04:13.534Z,1012.6
2017-04-02T01:05:16.687Z,1012.7
2017-04-02T01:06:19.028Z,1012.6
2017-04-02T01:07:21.874Z,1012.7
2017-04-02T01:08:24.721Z,1012.7
2017-04-02T01:09:27.125Z,1012.7
2017-04-02T01:10:30.459Z,1012.7
2017-04-02T01:11:32.802Z,1012.7
2017-04-02T01:12:35.647Z,1012.7
2017-04-02T01:13:38.493Z,1012.7
2017-04-02T01:14:40.839Z,1012.7
2017-04-02T01:15:43.941Z,1012.7
2017-04-02T01:16:46.293Z,1012.8
2017-04-02T01:17:49.142Z,1012.8
2017-04-02T01:18:52.120Z,1012.7
2017-04-02T01:19:54.462Z,1012.8
2017-04-02T01:20:57.428Z,1012.8
2017-04-02T01:22:00.280Z,1012.8
2017-04-02T01:23:02.996Z,1012.8
2017-04-02T01:24:05.339Z,1012.8
2017-04-02T01:25:08.223Z,1012.8
2017-04-02T01:26:11.322Z,1012.8
2017-04-02T01:27:13.665Z,1012.8
2017-04-02T01:28:16.512Z,1012.8
2017-04-02T01:29:19.363Z,1012.8
2017-04-02T01:30:21.708Z,1012.8
2017-04-02T01:31:24.727Z,1012.8
2017-04-02T01:32:27.571Z,1012.9
2017-04-02T01:33:30.283Z,1012.9
2017-04-02T01:34:32.629Z,1012.9
2017-04-02T01:35:35.471Z,1012.9
2017-04-02T01:36:38.569Z,1012.9
2017-04-02T01:37:40.914Z,1012.8
2017-04-02T01:38:43.790Z,1012.8
2017-04-02T01:39:46.641Z,1012.9
2017-04-02T01:40:48.984Z,1013
2017-04-02T01:41:52.080Z,1012.9
2017-04-02T01:42:54.431Z,1013
2017-04-02T01:43:57.285Z,1012.9
2017-04-02T01:45:00.138Z,1013
2017-04-02T01:46:02.985Z,1012.9
2017-04-02T01:47:05.587Z,1012.9
2017-04-02T01:48:08.433Z,1012.9
2017-04-02T01:49:10.777Z,1012.8
2017-04-02T01:50:13.489Z,1012.9
2017-04-02T01:51:16.330Z,1013
2017-04-02T01:52:19.295Z,1012.9
2017-04-02T01:53:22.014Z,1012.9
2017-04-02T01:54:24.364Z,1012.9
2017-04-02T01:55:27.211Z,1013
2017-04-02T01:56:30.083Z,1012.9
2017-04-02T01:57:33.182Z,1013
2017-04-02T01:58:35.529Z,1013
2017-04-02T01:59:38.369Z,1013
2017-04-02T02:00:40.709Z,1013.1
2017-04-02T02:01:43.559Z,1013
2017-04-02T02:02:46.667Z,1013.1
2017-04-02T02:03:48.882Z,1013.1
2017-04-02T02:04:51.599Z,1013.1
2017-04-02T02:05:54.445Z,1013.1
2017-04-02T02:06:57.294Z,1013.1
2017-04-02T02:08:00.263Z,1013.1
2017-04-02T02:09:02.607Z,1013.2
2017-04-02T02:10:05.458Z,1013.2
2017-04-02T02:12:10.592Z,1013.2
2017-04-02T02:13:13.553Z,1013.3
2017-04-02T02:14:16.405Z,1013.2
2017-04-02T02:15:18.755Z,1013.3
2017-04-02T02:16:21.605Z,1013.3
2017-04-02T02:17:24.453Z,1013.3
2017-04-02T02:18:27.608Z,1013.3
2017-04-02T02:19:29.824Z,1013.3
2017-04-02T02:20:32.680Z,1013.3
2017-04-02T02:21:35.022Z,1013.3
2017-04-02T02:22:37.867Z,1013.4
2017-04-02T02:23:41.012Z,1013.4
2017-04-02T02:24:43.357Z,1013.4
2017-04-02T02:25:46.071Z,1013.4
2017-04-02T02:26:48.919Z,1013.4
2017-04-02T02:27:51.765Z,1013.4
2017-04-02T02:28:54.406Z,1013.5
2017-04-02T02:29:56.751Z,1013.5
2017-04-02T02:30:59.466Z,1013.5
2017-04-02T02:33:05.228Z,1013.6
2017-04-02T02:34:07.884Z,1013.6
2017-04-02T02:35:10.743Z,1013.6
2017-04-02T02:36:13.093Z,1013.6
2017-04-02T02:37:15.941Z,1013.6
2017-04-02T02:38:18.784Z,1013.6
2017-04-02T02:39:21.886Z,1013.6
2017-04-02T02:40:24.234Z,1013.6
2017-04-02T02:41:27.083Z,1013.6
2017-04-02T02:42:29.791Z,1013.6
2017-04-02T02:43:32.500Z,1013.6
2017-04-02T02:44:35.108Z,1013.6
2017-04-02T02:45:37.451Z,1013.6
2017-04-02T02:46:40.296Z,1013.6
2017-04-02T02:47:43.142Z,1013.6
2017-04-02T02:48:45.991Z,1013.5
2017-04-02T02:49:48.677Z,1013.5
2017-04-02T02:50:51.027Z,1013.5
2017-04-02T02:51:53.875Z,1013.5
2017-04-02T02:52:56.584Z,1013.6
2017-04-02T02:53:59.433Z,1013.6
2017-04-02T02:55:02.586Z,1013.6
2017-04-02T02:56:04.793Z,1013.5
2017-04-02T02:57:07.507Z,1013.6
2017-04-02T02:58:10.404Z,1013.6
2017-04-02T02:59:12.749Z,1013.6
2017-04-02T03:00:15.767Z,1013.6
2017-04-02T03:01:18.478Z,1013.6
2017-04-02T03:03:23.730Z,1013.6
2017-04-02T03:04:26.584Z,1013.6
2017-04-02T03:05:29.284Z,1013.6
2017-04-02T03:06:32.130Z,1013.6
2017-04-02T03:07:34.468Z,1013.6
2017-04-02T03:08:37.310Z,1013.7
2017-04-02T03:09:40.154Z,1013.7
2017-04-02T03:10:43.252Z,1013.7
2017-04-02T03:11:45.593Z,1013.7
2017-04-02T03:12:47.933Z,1013.7
2017-04-02T03:13:50.777Z,1013.7
2017-04-02T03:14:53.663Z,1013.7
2017-04-02T03:15:56.678Z,1013.7
2017-04-02T03:16:59.020Z,1013.7
2017-04-02T03:18:01.861Z,1013.7
2017-04-02T03:19:04.199Z,1013.7
2017-04-02T03:20:07.081Z,1013.7
2017-04-02T03:21:10.276Z,1013.7
2017-04-02T03:22:12.620Z,1013.7
2017-04-02T03:23:15.465Z,1013.7
2017-04-02T03:24:17.721Z,1013.7
2017-04-02T03:25:20.565Z,1013.7
2017-04-02T03:26:23.582Z,1013.8
2017-04-02T03:27:25.921Z,1013.8
2017-04-02T03:28:28.770Z,1013.8
2017-04-02T03:29:31.610Z,1013.8
2017-04-02T03:30:34.456Z,1013.8
2017-04-02T03:31:37.331Z,1013.9
2017-04-02T03:32:39.673Z,1013.9
2017-04-02T03:33:42.514Z,1013.9
2017-04-02T03:34:44.853Z,1013.9
2017-04-02T03:35:47.563Z,1013.9
2017-04-02T03:36:50.710Z,1014
2017-04-02T03:37:53.051Z,1014
2017-04-02T03:38:55.897Z,1014
2017-04-02T03:39:58.740Z,1014
2017-04-02T03:41:01.446Z,1014.1
2017-04-02T03:42:04.458Z,1014.1
2017-04-02T03:43:06.800Z,1014.1
2017-04-02T03:44:09.140Z,1014.1
2017-04-02T03:45:11.846Z,1014.1
2017-04-02T03:46:14.688Z,1014.1
2017-04-02T03:47:17.699Z,1014.2
2017-04-02T03:48:20.037Z,1014.2
2017-04-02T03:49:22.884Z,1014.2
2017-04-02T03:50:25.738Z,1014.2
2017-04-02T03:51:28.083Z,1014.2
2017-04-02T03:52:31.230Z,1014.2
2017-04-02T03:53:33.571Z,1014.2
2017-04-02T03:54:36.413Z,1014.3
2017-04-02T03:55:39.259Z,1014.2
2017-04-02T03:56:41.597Z,1014.2
2017-04-02T03:57:44.741Z,1014.2
2017-04-02T03:58:47.079Z,1014.2
2017-04-02T03:59:49.928Z,1014.3
2017-04-02T04:00:52.778Z,1014.3
2017-04-02T04:01:55.116Z,1014.3
2017-04-02T04:02:58.264Z,1014.4
2017-04-02T04:04:00.601Z,1014.4
2017-04-02T04:05:03.443Z,1014.4
2017-04-02T04:06:06.152Z,1014.3
2017-04-02T04:07:08.861Z,1014.4
2017-04-02T04:08:12.008Z,1014.4
2017-04-02T04:09:14.347Z,1014.4
2017-04-02T04:10:16.685Z,1014.4
2017-04-02T04:11:19.526Z,1014.4
2017-04-02T04:12:22.368Z,1014.4
2017-04-02T04:13:25.515Z,1014.4
2017-04-02T04:14:27.857Z,1014.4
2017-04-02T04:15:30.224Z,1014.4
2017-04-02T04:16:33.064Z,1014.4
2017-04-02T04:17:35.975Z,1014.4
2017-04-02T04:18:38.935Z,1014.5
2017-04-02T04:19:41.277Z,1014.5
2017-04-02T04:20:44.122Z,1014.5
2017-04-02T04:21:46.336Z,1014.5
2017-04-02T04:22:49.176Z,1014.5
2017-04-02T04:23:52.324Z,1014.5
2017-04-02T04:24:54.670Z,1014.5
2017-04-02T04:25:57.512Z,1014.6
2017-04-02T04:26:59.857Z,1014.6
2017-04-02T04:28:02.707Z,1014.6
2017-04-02T04:29:05.668Z,1014.7
2017-04-02T04:30:08.008Z,1014.7
2017-04-02T04:31:10.720Z,1014.8
2017-04-02T04:32:13.562Z,1014.7
2017-04-02T04:33:16.408Z,1014.8
2017-04-02T04:34:19.240Z,1014.8
2017-04-02T04:35:21.579Z,1014.8
2017-04-02T04:36:24.458Z,1014.8
2017-04-02T04:37:26.803Z,1014.9
2017-04-02T04:38:29.524Z,1014.8
2017-04-02T04:39:32.667Z,1014.9
2017-04-02T04:40:35.142Z,1014.9
2017-04-02T04:41:37.984Z,1014.9
2017-04-02T04:42:40.322Z,1015
2017-04-02T04:43:43.159Z,1015
2017-04-02T04:44:45.984Z,1015.1
2017-04-02T04:45:48.826Z,1015.1
2017-04-02T04:46:51.160Z,1015.1
2017-04-02T04:47:54.002Z,1015.1
2017-04-02T04:48:56.848Z,1015.2
2017-04-02T04:49:59.494Z,1015.2
2017-04-02T04:51:02.333Z,1015.2
2017-04-02T04:52:04.680Z,1015.2
2017-04-02T04:53:07.393Z,1015.2
2017-04-02T04:54:10.238Z,1015.2
2017-04-02T04:55:13.337Z,1015.3
2017-04-02T04:56:15.683Z,1015.3
2017-04-02T04:57:18.525Z,1015.3
2017-04-02T04:58:20.871Z,1015.4
2017-04-02T04:59:23.713Z,1015.4
2017-04-02T05:00:26.821Z,1015.4
2017-04-02T05:01:29.029Z,1015.4
2017-04-02T05:02:31.875Z,1015.4
2017-04-02T05:03:34.213Z,1015.4
2017-04-02T05:04:37.054Z,1015.4
2017-04-02T05:05:40.012Z,1015.4
2017-04-02T05:06:42.722Z,1015.4
2017-04-02T05:07:45.076Z,1015.5
2017-04-02T05:08:47.922Z,1015.5
2017-04-02T05:09:50.807Z,1015.5
2017-04-02T05:10:53.398Z,1015.6
2017-04-02T05:11:56.245Z,1015.6
2017-04-02T05:12:58.583Z,1015.6
2017-04-02T05:14:01.427Z,1015.6
2017-04-02T05:15:04.270Z,1015.6
2017-04-02T05:16:07.285Z,1015.6
2017-04-02T05:17:09.627Z,1015.6
2017-04-02T05:18:11.965Z,1015.7
2017-04-02T05:19:14.682Z,1015.6
2017-04-02T05:20:17.531Z,1015.6
2017-04-02T05:21:20.629Z,1015.7
2017-04-02T05:22:22.969Z,1015.7
2017-04-02T05:23:25.823Z,1015.7
2017-04-02T05:24:28.164Z,1015.7
2017-04-02T05:25:30.913Z,1015.7
2017-04-02T05:26:34.052Z,1015.8
2017-04-02T05:27:36.262Z,1015.8
2017-04-02T05:28:39.035Z,1015.8
2017-04-02T05:29:41.752Z,1015.8
2017-04-02T05:30:44.597Z,1015.8
2017-04-02T05:31:47.554Z,1015.8
2017-04-02T05:32:49.898Z,1015.8
2017-04-02T05:33:52.747Z,1015.8
2017-04-02T05:34:55.599Z,1015.8
2017-04-02T05:35:57.935Z,1015.9
2017-04-02T05:37:01.082Z,1015.9
2017-04-02T05:38:03.291Z,1015.8
2017-04-02T05:39:06.138Z,1015.8
2017-04-02T05:40:08.850Z,1015.8
2017-04-02T05:41:11.694Z,1015.8
2017-04-02T05:42:14.839Z,1015.8
2017-04-02T05:43:17.179Z,1015.8
2017-04-02T05:44:19.520Z,1015.8
2017-04-02T05:45:22.362Z,1015.9
2017-04-02T05:46:25.107Z,1015.8
2017-04-02T05:47:28.253Z,1015.8
2017-04-02T05:48:30.591Z,1015.9
2017-04-02T05:49:33.437Z,1015.9
2017-04-02T05:50:35.811Z,1016
2017-04-02T05:51:38.653Z,1016
2017-04-02T05:52:41.800Z,1016
2017-04-02T05:54:46.594Z,1016
2017-04-02T05:55:49.442Z,1016.2
2017-04-02T05:56:52.285Z,1016
2017-04-02T05:57:54.962Z,1016.2
2017-04-02T05:58:57.303Z,1016
2017-04-02T06:00:00.152Z,1016.2
2017-04-02T06:01:02.998Z,1016.2
2017-04-02T06:02:05.840Z,1016.3
2017-04-02T06:03:08.851Z,1016.3
2017-04-02T06:04:11.192Z,1016.3
2017-04-02T06:05:13.531Z,1016.3
2017-04-02T06:06:16.376Z,1016.3
2017-04-02T06:07:19.229Z,1016.4
2017-04-02T06:08:22.377Z,1016.4
2017-04-02T06:09:24.715Z,1016.4
2017-04-02T06:10:27.056Z,1016.4
2017-04-02T06:11:29.895Z,1016.4
2017-04-02T06:12:32.737Z,1016.5
2017-04-02T06:13:35.751Z,1016.5
2017-04-02T06:14:38.095Z,1016.5
2017-04-02T06:15:40.943Z,1016.5
2017-04-02T06:16:43.790Z,1016.5
2017-04-02T06:17:46.128Z,1016.5
2017-04-02T06:18:49.458Z,1016.6
2017-04-02T06:19:51.798Z,1016.6
2017-04-02T06:20:54.141Z,1016.6
2017-04-02T06:21:56.991Z,1016.6
2017-04-02T06:22:59.835Z,1016.7
2017-04-02T06:24:02.929Z,1016.6
2017-04-02T06:25:05.270Z,1016.7
2017-04-02T06:26:08.121Z,1016.7
2017-04-02T06:27:10.465Z,1016.7
2017-04-02T06:28:13.374Z,1016.7
2017-04-02T06:29:16.518Z,1016.8
2017-04-02T06:30:18.864Z,1016.8
2017-04-02T06:31:21.711Z,1016.8
2017-04-02T06:33:26.966Z,1016.8
2017-04-02T06:34:30.115Z,1016.9
2017-04-02T06:35:32.455Z,1016.9
2017-04-02T06:36:35.031Z,1016.9
2017-04-02T06:37:37.873Z,1017
2017-04-02T06:38:40.211Z,1017
2017-04-02T06:39:43.355Z,1016.9
2017-04-02T06:40:45.698Z,1017
2017-04-02T06:41:48.543Z,1016.9
2017-04-02T06:42:51.428Z,1017
2017-04-02T06:43:53.769Z,1017
2017-04-02T06:44:56.866Z,1017
2017-04-02T06:45:59.205Z,1017.1
2017-04-02T06:47:02.279Z,1017.1
2017-04-02T06:48:04.621Z,1017.1
2017-04-02T06:49:07.503Z,1017.1
2017-04-02T06:50:10.601Z,1017.2
2017-04-02T06:51:13.001Z,1017.2
2017-04-02T06:52:15.850Z,1017.2
2017-04-02T06:53:18.189Z,1017.2
2017-04-02T06:54:21.155Z,1017.2
2017-04-02T06:55:24.257Z,1017.2
2017-04-02T06:56:26.609Z,1017.2
2017-04-02T06:57:29.317Z,1017.2
2017-04-02T06:58:32.158Z,1017.2
2017-04-02T06:59:34.871Z,1017.3
2017-04-02T07:00:38.073Z,1017.3
2017-04-02T07:01:39.906Z,1017.3
2017-04-02T07:02:42.752Z,1017.3
2017-04-02T07:03:45.593Z,1017.4
2017-04-02T07:04:48.435Z,1017.4
2017-04-02T07:05:51.079Z,1017.5
2017-04-02T07:06:53.418Z,1017.4
2017-04-02T07:07:56.125Z,1017.5
2017-04-02T07:08:59.024Z,1017.5
2017-04-02T07:10:01.870Z,1017.5
2017-04-02T07:11:04.967Z,1017.5
2017-04-02T07:12:07.171Z,1017.5
2017-04-02T07:13:10.068Z,1017.5
2017-04-02T07:14:12.411Z,1017.5
2017-04-02T07:15:15.260Z,1017.5
2017-04-02T07:16:18.221Z,1017.5
2017-04-02T07:17:20.561Z,1017.5
2017-04-02T07:18:23.405Z,1017.5
2017-04-02T07:19:26.255Z,1017.6
2017-04-02T07:20:29.100Z,1017.6
2017-04-02T07:21:31.693Z,1017.5
2017-04-02T07:22:34.536Z,1017.6
2017-04-02T07:23:36.873Z,1017.5
2017-04-02T07:24:39.714Z,1017.5
2017-04-02T07:25:42.560Z,1017.5
2017-04-02T07:26:45.656Z,1017.5
2017-04-02T07:27:47.996Z,1017.6
2017-04-02T07:28:50.841Z,1017.6
2017-04-02T07:29:53.185Z,1017.6
2017-04-02T07:30:56.029Z,1017.6
2017-04-02T07:31:59.171Z,1017.6
2017-04-02T07:33:01.515Z,1017.7
2017-04-02T07:34:04.359Z,1017.7
2017-04-02T07:35:07.201Z,1017.7
2017-04-02T07:36:09.422Z,1017.7
2017-04-02T07:37:12.889Z,1017.7
2017-04-02T07:38:15.229Z,1017.7
2017-04-02T07:39:17.871Z,1017.7
2017-04-02T07:40:20.772Z,1017.7
2017-04-02T07:41:23.113Z,1017.7
2017-04-02T07:42:26.210Z,1017.7
2017-04-02T07:43:28.562Z,1017.8
2017-04-02T07:44:31.403Z,1017.8
2017-04-02T07:45:34.248Z,1017.8
2017-04-02T07:46:37.089Z,1017.8
2017-04-02T07:47:39.679Z,1017.8
2017-04-02T07:48:42.389Z,1017.8
2017-04-02T07:49:45.234Z,1017.9
2017-04-02T07:50:47.574Z,1017.9
2017-04-02T07:51:50.420Z,1017.9
2017-04-02T07:52:53.382Z,1017.9
2017-04-02T07:53:55.718Z,1017.9
2017-04-02T07:54:58.430Z,1017.9
2017-04-02T07:56:01.271Z,1018
2017-04-02T07:57:04.153Z,1018
2017-04-02T07:58:07.301Z,1018
2017-04-02T07:59:09.510Z,1018
2017-04-02T08:00:12.225Z,1018
2017-04-02T08:01:14.934Z,1018
2017-04-02T08:02:17.779Z,1018
2017-04-02T08:03:20.877Z,1018
2017-04-02T08:04:23.219Z,1018
2017-04-02T08:05:26.057Z,1018
2017-04-02T08:06:28.396Z,1018
2017-04-02T08:07:31.237Z,1018
2017-04-02T08:08:34.067Z,1018
2017-04-02T08:09:36.911Z,1018
2017-04-02T08:10:39.256Z,1018
2017-04-02T08:11:42.098Z,1018
2017-04-02T08:12:44.942Z,1018
2017-04-02T08:13:48.033Z,1018.1
2017-04-02T08:14:50.376Z,1018.1
2017-04-02T08:15:53.226Z,1018.1
2017-04-02T08:16:55.802Z,1018.1
2017-04-02T08:17:58.647Z,1018.2
2017-04-02T08:19:01.745Z,1018.2
2017-04-02T08:20:03.813Z,1018.2
2017-04-02T08:21:06.523Z,1018.1
2017-04-02T08:22:09.366Z,1018.2
2017-04-02T08:23:12.088Z,1018.2
2017-04-02T08:24:15.187Z,1018.2
2017-04-02T08:25:17.529Z,1018.1
2017-04-02T08:26:20.375Z,1018.2
2017-04-02T08:27:23.082Z,1018.2
2017-04-02T08:28:25.790Z,1018.2
2017-04-02T08:29:28.946Z,1018.2
2017-04-02T08:30:31.287Z,1018.3
2017-04-02T08:31:34.128Z,1018.2
2017-04-02T08:32:36.970Z,1018.3
2017-04-02T08:33:39.311Z,1018.3
2017-04-02T08:34:42.463Z,1018.3
2017-04-02T08:35:44.804Z,1018.3
2017-04-02T08:36:47.650Z,1018.3
2017-04-02T08:37:50.494Z,1018.3
2017-04-02T08:38:53.339Z,1018.4
2017-04-02T08:39:56.483Z,1018.4
2017-04-02T08:40:58.819Z,1018.4
2017-04-02T08:42:01.395Z,1018.4
2017-04-02T08:43:04.237Z,1018.5
2017-04-02T08:44:07.080Z,1018.5
2017-04-02T08:45:09.674Z,1018.6
2017-04-02T08:46:12.520Z,1018.6
2017-04-02T08:47:14.924Z,1018.6
2017-04-02T08:48:17.765Z,1018.5
2017-04-02T08:49:20.474Z,1018.6
2017-04-02T08:50:23.575Z,1018.6
2017-04-02T08:51:25.915Z,1018.6
2017-04-02T08:52:28.756Z,1018.6
2017-04-02T08:53:31.600Z,1018.6
2017-04-02T08:54:34.443Z,1018.6
2017-04-02T08:55:37.535Z,1018.6
2017-04-02T08:56:39.879Z,1018.6
2017-04-02T08:57:42.723Z,1018.6
2017-04-02T08:58:45.071Z,1018.6
2017-04-02T08:59:47.915Z,1018.7
2017-04-02T09:00:51.066Z,1018.7
2017-04-02T09:01:53.409Z,1018.7
2017-04-02T09:02:56.255Z,1018.7
2017-04-02T09:03:59.100Z,1018.7
2017-04-02T09:05:01.805Z,1018.7
2017-04-02T09:06:04.899Z,1018.7
2017-04-02T09:07:07.102Z,1018.8
2017-04-02T09:08:09.943Z,1018.7
2017-04-02T09:09:12.652Z,1018.8
2017-04-02T09:10:15.363Z,1018.8
2017-04-02T09:11:18.515Z,1018.9
2017-04-02T09:12:20.753Z,1018.9
2017-04-02T09:13:23.598Z,1018.9
2017-04-02T09:14:26.322Z,1018.9
2017-04-02T09:15:29.165Z,1018.9
2017-04-02T09:16:32.316Z,1018.9
2017-04-02T09:17:34.657Z,1018.9
2017-04-02T09:18:37.499Z,1018.9
2017-04-02T09:19:39.841Z,1018.9
2017-04-02T09:20:42.682Z,1018.9
2017-04-02T09:21:45.779Z,1018.9
2017-04-02T09:22:48.127Z,1018.9
2017-04-02T09:23:50.970Z,1018.9
2017-04-02T09:24:53.814Z,1018.9
2017-04-02T09:25:56.449Z,1019
2017-04-02T09:26:59.594Z,1019
2017-04-02T09:28:01.934Z,1019
2017-04-02T09:29:04.518Z,1019
2017-04-02T09:30:07.228Z,1019.1
2017-04-02T09:31:10.069Z,1019.1
2017-04-02T09:32:13.160Z,1019.1
2017-04-02T09:33:15.502Z,1019.1
2017-04-02T09:34:18.348Z,1019.1
2017-04-02T09:35:21.188Z,1019.1
2017-04-02T09:36:24.048Z,1019.1
2017-04-02T09:37:26.921Z,1019.1
2017-04-02T09:38:29.125Z,1019.1
2017-04-02T09:39:31.966Z,1019.1
2017-04-02T09:40:34.811Z,1019.1
2017-04-02T09:41:37.653Z,1019.2
2017-04-02T09:42:40.754Z,1019.2
2017-04-02T09:43:43.099Z,1019.2
2017-04-02T09:44:45.947Z,1019.2
2017-04-02T09:45:48.286Z,1019.3
2017-04-02T09:46:51.126Z,1019.2
2017-04-02T09:47:54.223Z,1019.2
2017-04-02T09:48:56.947Z,1019.2
2017-04-02T09:49:59.294Z,1019.3
2017-04-02T09:51:02.008Z,1019.3
2017-04-02T09:52:04.723Z,1019.3
2017-04-02T09:53:07.820Z,1019.3
2017-04-02T09:54:10.207Z,1019.3
2017-04-02T09:55:13.050Z,1019.3
2017-04-02T09:56:15.896Z,1019.3
2017-04-02T09:57:18.747Z,1019.4
2017-04-02T09:58:21.848Z,1019.3
2017-04-02T09:59:24.064Z,1019.4
2017-04-02T10:00:26.910Z,1019.3
2017-04-02T10:01:29.624Z,1019.3
2017-04-02T10:02:32.469Z,1019.4
2017-04-02T10:03:35.480Z,1019.3
2017-04-02T10:04:37.685Z,1019.3
2017-04-02T10:05:40.527Z,1019.4
2017-04-02T10:07:45.779Z,1019.4
2017-04-02T10:08:49.249Z,1019.4
2017-04-02T10:09:51.592Z,1019.5
2017-04-02T10:10:54.438Z,1019.4
2017-04-02T10:11:57.146Z,1019.4
2017-04-02T10:12:59.489Z,1019.4
2017-04-02T10:14:02.590Z,1019.4
2017-04-02T10:15:05.439Z,1019.4
2017-04-02T10:16:07.780Z,1019.4
2017-04-02T10:17:10.623Z,1019.5
2017-04-02T10:18:13.339Z,1019.5
2017-04-02T10:19:16.433Z,1019.5
2017-04-02T10:20:19.154Z,1019.5
2017-04-02T10:21:21.497Z,1019.5
2017-04-02T10:22:24.575Z,1019.5
2017-04-02T10:23:26.920Z,1019.6
2017-04-02T10:24:30.432Z,1019.5
2017-04-02T10:25:32.773Z,1019.5
2017-04-02T10:26:35.614Z,1019.5
2017-04-02T10:27:38.328Z,1019.5
2017-04-02T10:28:40.669Z,1019.5
2017-04-02T10:29:43.815Z,1019.5
2017-04-02T10:30:46.154Z,1019.5
2017-04-02T10:31:48.998Z,1019.5
2017-04-02T10:32:51.843Z,1019.5
2017-04-02T10:33:54.685Z,1019.6
2017-04-02T10:36:00.186Z,1019.6
2017-04-02T10:37:03.032Z,1019.6
2017-04-02T10:38:05.742Z,1019.5
2017-04-02T10:39:08.588Z,1019.6
2017-04-02T10:40:11.296Z,1019.6
2017-04-02T10:41:14.262Z,1019.5
2017-04-02T10:42:16.602Z,1019.6
2017-04-02T10:43:19.447Z,1019.6
2017-04-02T10:44:22.297Z,1019.6
2017-04-02T10:45:24.636Z,1019.6
2017-04-02T10:46:27.735Z,1019.6
2017-04-02T10:47:30.582Z,1019.5
2017-04-02T10:48:33.291Z,1019.5
2017-04-02T10:49:35.634Z,1019.6
2017-04-02T10:50:38.480Z,1019.5
2017-04-02T10:51:41.573Z,1019.6
2017-04-02T10:52:43.915Z,1019.6
2017-04-02T10:53:46.626Z,1019.6
2017-04-02T10:54:49.338Z,1019.5
2017-04-02T10:55:52.549Z,1019.6
2017-04-02T10:56:55.137Z,1019.6
2017-04-02T10:57:57.977Z,1019.5
2017-04-02T10:59:00.819Z,1019.5
2017-04-02T11:00:03.166Z,1019.6
2017-04-02T11:01:06.012Z,1019.5
2017-04-02T11:02:09.112Z,1019.6
2017-04-02T11:04:14.363Z,1019.6
2017-04-02T11:05:17.211Z,1019.6
2017-04-02T11:06:20.065Z,1019.6
2017-04-02T11:07:22.660Z,1019.6
2017-04-02T11:08:25.502Z,1019.6
2017-04-02T11:09:28.348Z,1019.6
2017-04-02T11:10:31.114Z,1019.6
2017-04-02T11:11:33.453Z,1019.6
2017-04-02T11:12:36.553Z,1019.6
2017-04-02T11:13:39.396Z,1019.6
2017-04-02T11:14:41.740Z,1019.6
2017-04-02T11:15:44.447Z,1019.6
2017-04-02T11:16:47.661Z,1019.7
2017-04-02T11:17:50.364Z,1019.6
2017-04-02T11:18:52.764Z,1019.6
2017-04-02T11:19:55.609Z,1019.7
2017-04-02T11:20:58.490Z,1019.7
2017-04-02T11:23:04.061Z,1019.7
2017-04-02T11:24:06.905Z,1019.7
2017-04-02T11:25:09.345Z,1019.7
2017-04-02T11:26:12.186Z,1019.7
2017-04-02T11:27:14.967Z,1019.6
2017-04-02T11:28:18.066Z,1019.7
2017-04-02T11:29:20.400Z,1019.7
2017-04-02T11:30:23.480Z,1019.6
2017-04-02T11:32:29.102Z,1019.7
2017-04-02T11:33:31.689Z,1019.7
2017-04-02T11:34:34.528Z,1019.7
2017-04-02T11:35:37.372Z,1019.7
2017-04-02T11:36:39.805Z,1019.7
2017-04-02T11:37:42.707Z,1019.8
2017-04-02T11:38:45.805Z,1019.8
2017-04-02T11:39:48.149Z,1019.8
2017-04-02T11:40:50.991Z,1019.7
2017-04-02T11:41:53.838Z,1019.7
2017-04-02T11:42:56.683Z,1019.8
2017-04-02T11:43:59.827Z,1019.7
2017-04-02T11:45:02.170Z,1019.7
2017-04-02T11:46:05.019Z,1019.7
2017-04-02T11:47:07.735Z,1019.7
2017-04-02T11:48:10.444Z,1019.7
2017-04-02T11:49:13.592Z,1019.6
2017-04-02T11:50:15.799Z,1019.7
2017-04-02T11:51:18.642Z,1019.6
2017-04-02T11:52:21.365Z,1019.6
2017-04-02T11:53:24.220Z,1019.6
2017-04-02T11:54:27.366Z,1019.6
2017-04-02T11:55:29.703Z,1019.7
2017-04-02T11:56:32.413Z,1019.7
2017-04-02T11:57:35.259Z,1019.6
2017-04-02T11:58:38.101Z,1019.6
2017-04-02T12:00:43.600Z,1019.6
2017-04-02T12:01:46.315Z,1019.7
2017-04-02T12:02:49.161Z,1019.7
2017-04-02T12:03:52.003Z,1019.7
2017-04-02T12:04:54.716Z,1019.6
2017-04-02T12:05:57.863Z,1019.6
2017-04-02T12:07:00.205Z,1019.7
2017-04-02T12:08:03.053Z,1019.7
2017-04-02T12:09:05.943Z,1019.7
2017-04-02T12:10:08.649Z,1019.7
2017-04-02T12:11:11.794Z,1019.8
2017-04-02T12:12:14.137Z,1019.8
2017-04-02T12:13:16.982Z,1019.8
2017-04-02T12:14:19.554Z,1019.8
2017-04-02T12:15:22.400Z,1019.8
2017-04-02T12:16:25.495Z,1019.8
2017-04-02T12:17:27.835Z,1019.7
2017-04-02T12:18:30.676Z,1019.8
2017-04-02T12:19:33.523Z,1019.8
2017-04-02T12:20:36.368Z,1019.8
2017-04-02T12:21:39.046Z,1019.8
2017-04-02T12:22:41.758Z,1019.8
2017-04-02T12:23:44.600Z,1019.8
2017-04-02T12:24:47.446Z,1019.8
2017-04-02T12:25:49.783Z,1019.9
2017-04-02T12:27:55.659Z,1019.8
2017-04-02T12:28:58.504Z,1019.8
2017-04-02T12:30:00.850Z,1019.9
2017-04-02T12:31:03.691Z,1019.8
2017-04-02T12:32:06.536Z,1019.9
2017-04-02T12:33:09.876Z,1019.8
2017-04-02T12:34:12.219Z,1019.9
2017-04-02T12:35:15.061Z,1019.9
2017-04-02T12:36:17.777Z,1019.9
2017-04-02T12:37:20.482Z,1019.9
2017-04-02T12:38:23.624Z,1019.9
2017-04-02T12:39:25.970Z,1019.9
2017-04-02T12:40:28.812Z,1019.8
2017-04-02T12:41:31.389Z,1019.8
2017-04-02T12:42:34.229Z,1019.9
2017-04-02T12:43:37.558Z,1019.9
2017-04-02T12:44:39.902Z,1019.8
2017-04-02T12:45:42.748Z,1019.8
2017-04-02T12:46:45.325Z,1019.8
2017-04-02T12:47:48.167Z,1019.9
2017-04-02T12:48:51.314Z,1019.9
2017-04-02T12:49:53.692Z,1019.9
2017-04-02T12:50:56.402Z,1019.9
2017-04-02T12:51:59.244Z,1019.9
2017-04-02T12:53:02.086Z,1019.9
2017-04-02T12:54:05.186Z,1019.9
2017-04-02T12:55:07.524Z,1019.8
2017-04-02T12:56:10.366Z,1019.9
2017-04-02T12:57:13.215Z,1019.8
2017-04-02T12:58:16.059Z,1019.9
2017-04-02T12:59:19.156Z,1019.8
2017-04-02T13:00:21.496Z,1019.8
2017-04-02T13:01:24.378Z,1019.9
2017-04-02T13:02:27.225Z,1019.8
2017-04-02T13:03:30.071Z,1019.8
2017-04-02T13:04:32.948Z,1019.8
2017-04-02T13:05:35.295Z,1019.9
2017-04-02T13:06:38.141Z,1019.8
2017-04-02T13:07:40.853Z,1019.8
2017-04-02T13:08:43.700Z,1019.8
2017-04-02T13:09:46.796Z,1019.8
2017-04-02T13:10:49.640Z,1019.8
2017-04-02T13:11:52.356Z,1019.8
2017-04-02T13:12:55.203Z,1019.8
2017-04-02T13:13:57.545Z,1019.8
2017-04-02T13:15:00.642Z,1019.8
2017-04-02T13:16:03.350Z,1019.8
2017-04-02T13:17:06.194Z,1019.9
2017-04-02T13:18:09.040Z,1019.9
2017-04-02T13:19:11.882Z,1019.9